createdAt,value
2017-04-26T00:00:26.075Z,4.22
2017-04-26T00:01:26.390Z,3.17
2017-04-26T00:02:26.531Z,3.22
2017-04-26T00:03:26.610Z,3.85
2017-04-26T00:04:26.857Z,3.02
2017-04-26T00:05:27.397Z,3.37
2017-04-26T00:06:27.895Z,3.53
2017-04-26T00:07:28.239Z,2.95
2017-04-26T00:08:28.303Z,3.32
2017-04-26T00:09:28.384Z,3.27
2017-04-26T00:10:28.944Z,3.90
2017-04-26T00:11:30.215Z,3.70
2017-04-26T00:12:30.353Z,3.67
2017-04-26T00:13:30.545Z,4.18
2017-04-26T00:14:30.831Z,3.57
2017-04-26T00:15:32.164Z,3.95
2017-04-26T00:16:32.964Z,3.97
2017-04-26T00:17:33.183Z,3.65
2017-04-26T00:18:33.582Z,3.18
2017-04-26T00:19:33.723Z,3.05
2017-04-26T00:20:35.170Z,3.85
2017-04-26T00:21:36.060Z,3.60
2017-04-26T00:22:36.147Z,3.67
2017-04-26T00:23:36.399Z,3.57
2017-04-26T00:24:37.232Z,4.02
2017-04-26T00:25:37.958Z,4.25
2017-04-26T00:26:38.707Z,4.03
2017-04-26T00:27:38.744Z,3.35
2017-04-26T00:28:38.960Z,4.58
2017-04-26T00:29:39.061Z,4.25
2017-04-26T00:30:39.752Z,3.90
2017-04-26T00:31:39.912Z,3.30
2017-04-26T00:32:40.115Z,3.90
2017-04-26T00:33:40.185Z,4.00
2017-04-26T00:34:40.226Z,3.72
2017-04-26T00:35:40.677Z,4.70
2017-04-26T00:36:40.729Z,4.03
2017-04-26T00:37:40.929Z,4.32
2017-04-26T00:38:40.936Z,4.12
2017-04-26T00:39:40.931Z,4.87
2017-04-26T00:40:42.355Z,5.33
2017-04-26T00:41:43.159Z,5.10
2017-04-26T00:42:43.214Z,4.63
2017-04-26T00:43:43.286Z,4.07
2017-04-26T00:44:44.081Z,4.00
2017-04-26T00:45:44.091Z,4.60
2017-04-26T00:46:44.110Z,4.58
2017-04-26T00:47:44.121Z,5.15
2017-04-26T00:48:44.127Z,5.02
2017-04-26T00:49:44.141Z,4.93
2017-04-26T00:50:44.282Z,5.08
2017-04-26T00:51:44.275Z,4.60
2017-04-26T00:52:45.026Z,4.18
2017-04-26T00:53:45.045Z,4.62
2017-04-26T00:54:45.089Z,5.57
2017-04-26T00:55:45.046Z,5.90
2017-04-26T00:56:45.065Z,4.83
2017-04-26T00:57:45.100Z,5.32
2017-04-26T00:58:45.241Z,4.25
2017-04-26T00:59:45.958Z,4.92
2017-04-26T01:00:47.545Z,5.58
2017-04-26T01:01:47.597Z,4.68
2017-04-26T01:02:48.328Z,6.45
2017-04-26T01:03:49.129Z,5.32
2017-04-26T01:04:49.212Z,5.97
2017-04-26T01:05:49.224Z,5.32
2017-04-26T01:06:49.251Z,5.63
2017-04-26T01:07:49.246Z,5.37
2017-04-26T01:08:50.020Z,5.80
2017-04-26T01:09:50.067Z,5.23
2017-04-26T01:10:50.119Z,6.22
2017-04-26T01:11:50.882Z,5.65
2017-04-26T01:12:50.880Z,5.42
2017-04-26T01:13:50.888Z,6.08
2017-04-26T01:14:50.932Z,5.82
2017-04-26T01:15:50.954Z,4.92
2017-04-26T01:16:50.910Z,6.05
2017-04-26T01:17:50.921Z,5.58
2017-04-26T01:18:50.962Z,5.75
2017-04-26T01:19:50.985Z,5.53
2017-04-26T01:20:51.018Z,6.05
2017-04-26T01:21:51.139Z,6.03
2017-04-26T01:22:51.366Z,5.83
2017-04-26T01:23:51.387Z,6.60
2017-04-26T01:24:51.394Z,6.00
2017-04-26T01:25:51.395Z,5.92
2017-04-26T01:26:51.425Z,7.18
2017-04-26T01:27:51.446Z,5.92
2017-04-26T01:28:51.483Z,6.00
2017-04-26T01:29:51.499Z,5.97
2017-04-26T01:30:51.515Z,6.72
2017-04-26T01:31:53.489Z,6.33
2017-04-26T01:32:53.560Z,5.80
2017-04-26T01:33:53.605Z,6.02
2017-04-26T01:34:53.627Z,6.12
2017-04-26T01:35:53.658Z,6.85
2017-04-26T01:36:54.416Z,6.85
2017-04-26T01:37:54.451Z,5.35
2017-04-26T01:38:54.454Z,6.10
2017-04-26T01:39:54.482Z,7.03
2017-04-26T01:40:54.488Z,6.90
2017-04-26T01:41:54.507Z,6.20
2017-04-26T01:42:54.601Z,6.30
2017-04-26T01:43:54.603Z,7.12
2017-04-26T01:44:54.685Z,6.50
2017-04-26T01:45:55.448Z,7.02
2017-04-26T01:46:55.468Z,7.20
2017-04-26T01:47:56.199Z,6.05
2017-04-26T01:49:03.750Z,6.45
2017-04-26T01:50:03.795Z,6.85
2017-04-26T01:51:04.690Z,6.27
2017-04-26T01:52:04.795Z,7.28
2017-04-26T01:53:04.801Z,6.92
2017-04-26T01:54:05.157Z,7.70
2017-04-26T01:55:05.958Z,9.10
2017-04-26T01:56:06.086Z,7.35
2017-04-26T01:57:06.823Z,7.77
2017-04-26T01:58:06.820Z,7.02
2017-04-26T01:59:07.079Z,7.60
2017-04-26T02:00:07.112Z,7.62
2017-04-26T02:01:07.143Z,7.90
2017-04-26T02:02:07.196Z,6.40
2017-04-26T02:03:07.229Z,5.98
2017-04-26T02:04:07.272Z,8.53
2017-04-26T02:05:07.382Z,7.28
2017-04-26T02:06:07.498Z,6.77
2017-04-26T02:07:07.650Z,7.23
2017-04-26T02:08:07.686Z,7.05
2017-04-26T02:09:07.717Z,7.87
2017-04-26T02:10:08.899Z,7.23
2017-04-26T02:11:08.934Z,6.75
2017-04-26T02:12:08.945Z,5.95
2017-04-26T02:13:09.690Z,6.57
2017-04-26T02:14:09.690Z,6.85
2017-04-26T02:15:09.686Z,7.25
2017-04-26T02:16:10.594Z,6.95
2017-04-26T02:17:10.626Z,7.68
2017-04-26T02:18:11.388Z,6.20
2017-04-26T02:19:11.438Z,7.07
2017-04-26T02:20:11.458Z,6.87
2017-04-26T02:21:12.222Z,6.73
2017-04-26T02:22:12.366Z,7.07
2017-04-26T02:23:12.429Z,7.12
2017-04-26T02:24:13.476Z,6.20
2017-04-26T02:25:14.301Z,6.90
2017-04-26T02:26:14.309Z,7.27
2017-04-26T02:27:14.361Z,7.87
2017-04-26T02:28:14.451Z,7.45
2017-04-26T02:29:14.474Z,6.90
2017-04-26T02:30:14.521Z,7.38
2017-04-26T02:31:14.747Z,6.68
2017-04-26T02:32:14.823Z,6.50
2017-04-26T02:33:14.840Z,6.58
2017-04-26T02:34:14.849Z,6.30
2017-04-26T02:35:14.858Z,7.30
2017-04-26T02:36:14.883Z,7.08
2017-04-26T02:37:14.935Z,7.83
2017-04-26T02:38:15.059Z,7.05
2017-04-26T02:39:15.805Z,8.05
2017-04-26T02:40:15.895Z,6.08
2017-04-26T02:41:15.893Z,6.33
2017-04-26T02:42:16.673Z,6.95
2017-04-26T02:43:16.661Z,7.03
2017-04-26T02:44:16.688Z,7.23
2017-04-26T02:45:16.696Z,6.55
2017-04-26T02:46:16.845Z,7.00
2017-04-26T02:47:17.567Z,6.28
2017-04-26T02:48:17.586Z,7.03
2017-04-26T02:49:17.624Z,6.52
2017-04-26T02:50:17.650Z,6.48
2017-04-26T02:51:17.701Z,6.27
2017-04-26T02:52:18.452Z,7.60
2017-04-26T02:53:18.442Z,6.82
2017-04-26T02:54:18.412Z,7.77
2017-04-26T02:55:18.451Z,7.15
2017-04-26T02:56:18.647Z,5.77
2017-04-26T02:57:19.387Z,7.98
2017-04-26T02:58:19.401Z,6.35
2017-04-26T02:59:19.439Z,7.32
2017-04-26T03:00:19.445Z,7.88
2017-04-26T03:01:19.411Z,5.78
2017-04-26T03:02:20.203Z,7.47
2017-04-26T03:03:20.215Z,6.15
2017-04-26T03:04:20.333Z,7.33
2017-04-26T03:05:21.095Z,7.30
2017-04-26T03:06:21.094Z,8.83
2017-04-26T03:07:21.146Z,6.87
2017-04-26T03:08:21.172Z,7.80
2017-04-26T03:09:21.947Z,8.70
2017-04-26T03:10:22.016Z,7.25
2017-04-26T03:11:22.778Z,7.47
2017-04-26T03:12:22.785Z,7.60
2017-04-26T03:13:22.823Z,8.42
2017-04-26T03:14:22.840Z,8.80
2017-04-26T03:15:22.846Z,8.95
2017-04-26T03:16:22.817Z,7.52
2017-04-26T03:17:22.860Z,8.33
2017-04-26T03:18:22.882Z,8.63
2017-04-26T03:19:23.663Z,7.88
2017-04-26T03:20:23.673Z,8.57
2017-04-26T03:21:23.781Z,7.90
2017-04-26T03:22:23.874Z,9.55
2017-04-26T03:23:23.889Z,8.43
2017-04-26T03:24:23.898Z,8.95
2017-04-26T03:25:23.930Z,8.05
2017-04-26T03:26:23.922Z,8.45
2017-04-26T03:27:24.133Z,8.13
2017-04-26T03:28:24.789Z,8.25
2017-04-26T03:29:25.596Z,8.13
2017-04-26T03:30:25.840Z,8.37
2017-04-26T03:31:26.542Z,9.15
2017-04-26T03:32:26.609Z,8.52
2017-04-26T03:33:26.634Z,7.38
2017-04-26T03:34:26.714Z,7.60
2017-04-26T03:35:26.771Z,7.75
2017-04-26T03:36:27.654Z,7.88
2017-04-26T03:37:27.789Z,9.07
2017-04-26T03:38:27.854Z,8.52
2017-04-26T03:39:28.046Z,8.40
2017-04-26T03:40:28.809Z,7.88
2017-04-26T03:41:29.034Z,9.42
2017-04-26T03:42:29.618Z,9.18
2017-04-26T03:43:29.663Z,9.03
2017-04-26T03:44:29.727Z,8.48
2017-04-26T03:45:29.780Z,9.78
2017-04-26T03:46:29.807Z,8.88
2017-04-26T03:47:29.871Z,9.20
2017-04-26T03:48:29.949Z,8.82
2017-04-26T03:49:30.798Z,9.63
2017-04-26T03:50:30.911Z,10.60
2017-04-26T03:51:30.931Z,10.43
2017-04-26T03:52:30.945Z,10.48
2017-04-26T03:53:30.986Z,10.58
2017-04-26T03:54:30.993Z,8.93
2017-04-26T03:55:31.783Z,9.50
2017-04-26T03:56:31.804Z,10.05
2017-04-26T03:57:31.917Z,9.57
2017-04-26T03:58:32.042Z,8.83
2017-04-26T03:59:32.900Z,9.80
2017-04-26T04:00:32.957Z,9.75
2017-04-26T04:01:32.961Z,9.58
2017-04-26T04:02:33.450Z,9.53
2017-04-26T04:03:33.502Z,9.62
2017-04-26T04:04:33.549Z,10.55
2017-04-26T04:05:33.550Z,9.18
2017-04-26T04:06:33.557Z,10.58
2017-04-26T04:07:33.668Z,9.55
2017-04-26T04:08:33.687Z,10.22
2017-04-26T04:09:33.696Z,9.88
2017-04-26T04:10:33.805Z,10.40
2017-04-26T04:11:33.843Z,12.13
2017-04-26T04:12:33.878Z,9.82
2017-04-26T04:13:34.618Z,9.95
2017-04-26T04:14:34.643Z,9.70
2017-04-26T04:15:35.275Z,10.43
2017-04-26T04:16:35.341Z,9.23
2017-04-26T04:17:36.107Z,9.30
2017-04-26T04:18:36.123Z,9.07
2017-04-26T04:19:36.147Z,9.70
2017-04-26T04:20:36.514Z,10.33
2017-04-26T04:21:36.654Z,8.95
2017-04-26T04:22:36.665Z,10.35
2017-04-26T04:23:36.670Z,10.33
2017-04-26T04:24:36.706Z,10.03
2017-04-26T04:25:36.694Z,8.48
2017-04-26T04:26:36.723Z,10.50
2017-04-26T04:27:36.727Z,10.38
2017-04-26T04:28:36.767Z,10.52
2017-04-26T04:29:36.793Z,11.38
2017-04-26T04:30:36.853Z,9.95
2017-04-26T04:31:36.874Z,9.85
2017-04-26T04:32:37.627Z,8.63
2017-04-26T04:33:37.681Z,9.47
2017-04-26T04:34:37.708Z,9.08
2017-04-26T04:35:38.557Z,10.70
2017-04-26T04:36:38.695Z,9.73
2017-04-26T04:37:38.745Z,8.97
2017-04-26T04:38:39.771Z,9.58
2017-04-26T04:39:39.827Z,8.62
2017-04-26T04:40:39.996Z,9.82
2017-04-26T04:41:40.009Z,9.30
2017-04-26T04:42:40.738Z,8.68
2017-04-26T04:43:41.517Z,9.10
2017-04-26T04:44:41.543Z,9.40
2017-04-26T04:45:41.564Z,9.45
2017-04-26T04:46:41.611Z,9.38
2017-04-26T04:47:41.713Z,7.50
2017-04-26T04:48:41.698Z,7.97
2017-04-26T04:49:41.768Z,8.10
2017-04-26T04:50:41.805Z,8.02
2017-04-26T04:51:42.568Z,8.38
2017-04-26T04:52:42.821Z,7.43
2017-04-26T04:53:42.890Z,7.87
2017-04-26T04:54:42.897Z,7.90
2017-04-26T04:55:42.942Z,8.75
2017-04-26T04:56:42.942Z,8.52
2017-04-26T04:57:42.946Z,8.82
2017-04-26T04:58:43.269Z,9.35
2017-04-26T04:59:43.343Z,7.38
2017-04-26T05:00:43.353Z,8.45
2017-04-26T05:01:43.389Z,9.00
2017-04-26T05:02:43.420Z,7.98
2017-04-26T05:03:44.193Z,8.95
2017-04-26T05:04:44.197Z,8.80
2017-04-26T05:05:44.230Z,9.12
2017-04-26T05:06:44.381Z,9.40
2017-04-26T05:07:44.494Z,8.67
2017-04-26T05:08:44.512Z,9.73
2017-04-26T05:09:44.523Z,9.73
2017-04-26T05:10:45.093Z,9.02
2017-04-26T05:11:45.105Z,8.75
2017-04-26T05:12:45.211Z,8.12
2017-04-26T05:13:45.260Z,8.38
2017-04-26T05:14:45.281Z,9.68
2017-04-26T05:15:45.376Z,8.52
2017-04-26T05:16:45.423Z,7.55
2017-04-26T05:17:45.452Z,8.50
2017-04-26T05:18:46.228Z,7.23
2017-04-26T05:19:46.306Z,9.97
2017-04-26T05:20:46.380Z,7.78
2017-04-26T05:21:46.433Z,8.02
2017-04-26T05:22:46.505Z,7.25
2017-04-26T05:23:46.701Z,9.10
2017-04-26T05:24:46.743Z,7.13
2017-04-26T05:25:46.857Z,7.63
2017-04-26T05:26:47.616Z,7.45
2017-04-26T05:27:47.683Z,8.35
2017-04-26T05:28:47.788Z,7.60
2017-04-26T05:29:48.577Z,7.62
2017-04-26T05:30:48.614Z,7.40
2017-04-26T05:31:49.405Z,8.00
2017-04-26T05:32:49.518Z,8.30
2017-04-26T05:33:49.651Z,7.50
2017-04-26T05:34:50.452Z,6.80
2017-04-26T05:35:50.565Z,7.88
2017-04-26T05:36:50.711Z,7.48
2017-04-26T05:37:50.834Z,8.90
2017-04-26T05:38:51.010Z,7.40
2017-04-26T05:39:51.081Z,8.13
2017-04-26T05:40:51.123Z,8.72
2017-04-26T05:41:51.155Z,7.97
2017-04-26T05:42:51.187Z,8.47
2017-04-26T05:43:51.366Z,8.52
2017-04-26T05:44:52.115Z,8.67
2017-04-26T05:45:52.268Z,11.88
2017-04-26T05:46:52.441Z,10.13
2017-04-26T05:47:52.466Z,7.85
2017-04-26T05:48:53.238Z,8.40
2017-04-26T05:49:54.016Z,7.42
2017-04-26T05:50:54.070Z,8.75
2017-04-26T05:51:54.821Z,7.20
2017-04-26T05:52:54.876Z,7.77
2017-04-26T05:53:54.953Z,8.65
2017-04-26T05:54:54.965Z,8.47
2017-04-26T05:55:55.000Z,7.40
2017-04-26T05:56:54.965Z,7.92
2017-04-26T05:57:54.946Z,7.10
2017-04-26T05:58:54.981Z,8.67
2017-04-26T05:59:55.124Z,7.18
2017-04-26T06:00:55.228Z,8.62
2017-04-26T06:01:55.336Z,7.03
2017-04-26T06:02:55.402Z,8.23
2017-04-26T06:03:55.415Z,7.88
2017-04-26T06:04:55.407Z,9.07
2017-04-26T06:05:55.528Z,8.72
2017-04-26T06:06:55.555Z,7.97
2017-04-26T06:07:55.695Z,7.98
2017-04-26T06:08:55.804Z,8.28
2017-04-26T06:09:56.614Z,8.37
2017-04-26T06:10:56.900Z,8.80
2017-04-26T06:11:57.011Z,8.33
2017-04-26T06:12:57.104Z,9.58
2017-04-26T06:13:57.177Z,10.00
2017-04-26T06:14:58.023Z,8.55
2017-04-26T06:15:58.814Z,7.75
2017-04-26T06:16:59.857Z,8.00
2017-04-26T06:18:00.659Z,7.70
2017-04-26T06:19:00.702Z,8.03
2017-04-26T06:20:01.446Z,8.18
2017-04-26T06:21:01.590Z,8.90
2017-04-26T06:22:01.608Z,8.02
2017-04-26T06:23:01.615Z,7.93
2017-04-26T06:24:01.653Z,7.17
2017-04-26T06:25:02.462Z,7.30
2017-04-26T06:26:02.586Z,6.80
2017-04-26T06:27:03.457Z,7.48
2017-04-26T06:28:03.509Z,8.13
2017-04-26T06:29:03.634Z,6.88
2017-04-26T06:30:04.434Z,6.45
2017-04-26T06:31:04.490Z,8.18
2017-04-26T06:32:05.061Z,6.65
2017-04-26T06:33:05.145Z,7.20
2017-04-26T06:34:05.186Z,6.90
2017-04-26T06:35:06.256Z,6.50
2017-04-26T06:36:06.346Z,5.92
2017-04-26T06:37:06.542Z,6.60
2017-04-26T06:38:07.377Z,6.28
2017-04-26T06:39:08.125Z,7.08
2017-04-26T06:40:08.166Z,6.93
2017-04-26T06:41:08.215Z,7.73
2017-04-26T06:42:09.034Z,7.93
2017-04-26T06:43:10.052Z,6.60
2017-04-26T06:44:10.096Z,5.70
2017-04-26T06:45:10.286Z,6.00
2017-04-26T06:46:11.162Z,6.90
2017-04-26T06:47:11.257Z,7.23
2017-04-26T06:48:11.407Z,8.08
2017-04-26T06:49:12.339Z,6.57
2017-04-26T06:50:12.408Z,4.98
2017-04-26T06:51:12.402Z,6.40
2017-04-26T06:52:12.453Z,6.18
2017-04-26T06:53:12.589Z,6.35
2017-04-26T06:54:13.434Z,6.12
2017-04-26T06:55:13.585Z,5.72
2017-04-26T06:56:13.641Z,5.75
2017-04-26T06:57:14.503Z,5.33
2017-04-26T06:58:14.641Z,6.10
2017-04-26T06:59:14.696Z,4.83
2017-04-26T07:00:14.748Z,6.15
2017-04-26T07:01:14.846Z,6.32
2017-04-26T07:02:14.850Z,6.20
2017-04-26T07:03:14.888Z,6.22
2017-04-26T07:04:14.968Z,5.97
2017-04-26T07:05:15.048Z,6.08
2017-04-26T07:06:15.138Z,6.90
2017-04-26T07:07:15.147Z,5.20
2017-04-26T07:08:16.048Z,6.20
2017-04-26T07:09:16.091Z,5.35
2017-04-26T07:10:16.143Z,5.73
2017-04-26T07:11:16.286Z,5.60
2017-04-26T07:12:17.081Z,5.47
2017-04-26T07:13:17.225Z,4.78
2017-04-26T07:14:18.013Z,5.48
2017-04-26T07:15:18.155Z,5.12
2017-04-26T07:16:18.190Z,3.95
2017-04-26T07:17:18.209Z,4.42
2017-04-26T07:18:18.206Z,3.70
2017-04-26T07:19:18.269Z,4.38
2017-04-26T07:20:18.278Z,4.07
2017-04-26T07:21:18.287Z,4.28
2017-04-26T07:22:19.120Z,4.53
2017-04-26T07:23:20.256Z,4.50
2017-04-26T07:24:20.413Z,3.87
2017-04-26T07:25:20.424Z,3.50
2017-04-26T07:26:20.425Z,4.02
2017-04-26T07:27:20.433Z,4.02
2017-04-26T07:28:20.731Z,3.48
2017-04-26T07:29:20.794Z,3.03
2017-04-26T07:30:21.573Z,3.77
2017-04-26T07:31:21.616Z,4.03
2017-04-26T07:32:21.660Z,4.28
2017-04-26T07:33:22.098Z,4.27
2017-04-26T07:34:22.421Z,2.92
2017-04-26T07:35:22.470Z,3.67
2017-04-26T07:36:22.487Z,3.28
2017-04-26T07:37:23.278Z,3.13
2017-04-26T07:38:23.620Z,3.98
2017-04-26T07:39:24.560Z,3.37
2017-04-26T07:40:25.350Z,3.52
2017-04-26T07:41:25.434Z,4.07
2017-04-26T07:42:25.482Z,3.67
2017-04-26T07:43:25.917Z,3.17
2017-04-26T07:44:26.683Z,2.93
2017-04-26T07:45:26.723Z,2.90
2017-04-26T07:46:26.745Z,3.32
2017-04-26T07:47:27.582Z,2.73
2017-04-26T07:48:28.714Z,4.18
2017-04-26T07:49:29.566Z,4.92
2017-04-26T07:50:29.621Z,3.87
2017-04-26T07:51:29.650Z,3.88
2017-04-26T07:52:30.633Z,3.82
2017-04-26T07:53:31.593Z,3.72
2017-04-26T07:54:31.595Z,3.72
2017-04-26T07:55:31.658Z,3.87
2017-04-26T07:56:31.718Z,3.70
2017-04-26T07:57:31.753Z,3.58
2017-04-26T07:58:32.153Z,3.58
2017-04-26T07:59:32.922Z,4.28
2017-04-26T08:00:33.005Z,3.97
2017-04-26T08:01:33.046Z,3.28
2017-04-26T08:02:33.074Z,3.22
2017-04-26T08:03:33.464Z,3.33
2017-04-26T08:04:33.495Z,2.98
2017-04-26T08:05:33.541Z,3.22
2017-04-26T08:06:33.581Z,2.65
2017-04-26T08:07:33.788Z,3.35
2017-04-26T08:08:34.127Z,2.22
2017-04-26T08:09:34.154Z,2.00
2017-04-26T08:10:34.245Z,1.90
2017-04-26T08:11:34.589Z,1.97
2017-04-26T08:12:35.374Z,2.08
2017-04-26T08:13:35.849Z,2.07
2017-04-26T08:14:36.025Z,1.63
2017-04-26T08:15:36.035Z,1.65
2017-04-26T08:16:36.078Z,1.52
2017-04-26T08:17:36.094Z,1.57
2017-04-26T08:18:37.290Z,1.47
2017-04-26T08:19:38.026Z,1.50
2017-04-26T08:20:38.825Z,1.52
2017-04-26T08:21:38.897Z,1.85
2017-04-26T08:22:38.927Z,1.57
2017-04-26T08:23:39.293Z,1.47
2017-04-26T08:24:39.383Z,1.10
2017-04-26T08:25:40.207Z,1.57
2017-04-26T08:26:40.990Z,3.90
2017-04-26T08:27:41.059Z,1.37
2017-04-26T08:28:41.548Z,0.92
2017-04-26T08:29:41.578Z,1.97
2017-04-26T08:30:41.650Z,2.07
2017-04-26T08:31:41.703Z,1.13
2017-04-26T08:32:41.744Z,1.70
2017-04-26T08:33:42.913Z,1.53
2017-04-26T08:34:43.753Z,1.30
2017-04-26T08:35:44.518Z,1.55
2017-04-26T08:36:44.522Z,2.43
2017-04-26T08:37:44.550Z,1.42
2017-04-26T08:38:44.889Z,1.75
2017-04-26T08:39:45.830Z,2.05
2017-04-26T08:40:46.602Z,1.37
2017-04-26T08:41:46.734Z,1.15
2017-04-26T08:42:46.888Z,3.08
2017-04-26T08:43:47.334Z,1.32
2017-04-26T08:44:47.365Z,1.42
2017-04-26T08:45:47.418Z,1.50
2017-04-26T08:46:47.451Z,1.75
2017-04-26T08:47:47.482Z,1.53
2017-04-26T08:48:47.813Z,1.23
2017-04-26T08:49:48.626Z,1.30
2017-04-26T08:50:48.713Z,1.47
2017-04-26T08:51:48.754Z,1.30
2017-04-26T08:52:48.817Z,1.22
2017-04-26T08:53:49.226Z,1.23
2017-04-26T08:54:49.254Z,2.38
2017-04-26T08:55:50.081Z,1.30
2017-04-26T08:56:50.072Z,1.68
2017-04-26T08:57:50.384Z,2.27
2017-04-26T08:58:50.838Z,1.52
2017-04-26T08:59:50.947Z,1.47
2017-04-26T09:00:51.115Z,1.20
2017-04-26T09:01:51.285Z,1.23
2017-04-26T09:02:51.419Z,1.37
2017-04-26T09:03:51.844Z,1.27
2017-04-26T09:04:51.873Z,1.30
2017-04-26T09:05:52.026Z,2.03
2017-04-26T09:06:52.796Z,1.32
2017-04-26T09:07:52.822Z,1.65
2017-04-26T09:08:53.903Z,1.12
2017-04-26T09:09:54.664Z,1.55
2017-04-26T09:10:54.695Z,1.37
2017-04-26T09:11:54.834Z,1.50
2017-04-26T09:12:55.737Z,1.80
2017-04-26T09:13:56.111Z,1.50
2017-04-26T09:14:56.133Z,1.30
2017-04-26T09:15:56.207Z,1.48
2017-04-26T09:16:56.249Z,1.72
2017-04-26T09:17:56.295Z,1.30
2017-04-26T09:18:56.716Z,1.30
2017-04-26T09:19:56.750Z,1.32
2017-04-26T09:20:56.814Z,2.02
2017-04-26T09:21:56.924Z,1.08
2017-04-26T09:22:56.944Z,1.32
2017-04-26T09:23:57.779Z,1.87
2017-04-26T09:24:59.171Z,1.40
2017-04-26T09:26:00.005Z,1.07
2017-04-26T09:27:00.045Z,1.22
2017-04-26T09:28:00.056Z,1.63
2017-04-26T09:29:01.109Z,1.57
2017-04-26T09:30:01.219Z,2.10
2017-04-26T09:31:01.253Z,1.53
2017-04-26T09:32:01.285Z,1.07
2017-04-26T09:33:01.306Z,1.30
2017-04-26T09:34:01.743Z,1.30
2017-04-26T09:35:02.511Z,2.00
2017-04-26T09:36:02.583Z,1.37
2017-04-26T09:37:02.729Z,1.40
2017-04-26T09:38:03.462Z,1.67
2017-04-26T09:39:03.819Z,1.03
2017-04-26T09:40:04.623Z,1.17
2017-04-26T09:41:04.653Z,1.28
2017-04-26T09:42:05.452Z,1.42
2017-04-26T09:43:05.524Z,1.48
2017-04-26T09:44:06.010Z,1.35
2017-04-26T09:45:06.055Z,1.80
2017-04-26T09:46:06.063Z,1.10
2017-04-26T09:47:06.120Z,1.70
2017-04-26T09:48:06.877Z,1.27
2017-04-26T09:49:07.496Z,1.38
2017-04-26T09:50:07.549Z,1.20
2017-04-26T09:51:07.574Z,1.27
2017-04-26T09:52:08.334Z,1.10
2017-04-26T09:53:08.364Z,1.37
2017-04-26T09:54:08.872Z,1.35
2017-04-26T09:55:08.988Z,1.13
2017-04-26T09:56:09.022Z,1.47
2017-04-26T09:57:09.168Z,1.88
2017-04-26T09:58:09.282Z,1.12
2017-04-26T09:59:09.724Z,1.28
2017-04-26T10:00:09.817Z,1.18
2017-04-26T10:01:09.848Z,1.37
2017-04-26T10:02:09.949Z,1.42
2017-04-26T10:03:10.155Z,1.32
2017-04-26T10:04:10.526Z,1.75
2017-04-26T10:05:11.251Z,0.97
2017-04-26T10:06:11.262Z,1.40
2017-04-26T10:07:11.558Z,1.10
2017-04-26T10:08:11.604Z,1.83
2017-04-26T10:09:12.123Z,1.37
2017-04-26T10:10:12.238Z,1.42
2017-04-26T10:11:12.287Z,1.18
2017-04-26T10:12:12.365Z,1.43
2017-04-26T10:13:12.467Z,1.43
2017-04-26T10:14:12.987Z,1.02
2017-04-26T10:15:13.070Z,1.00
2017-04-26T10:16:13.881Z,1.15
2017-04-26T10:17:14.725Z,1.58
2017-04-26T10:18:14.797Z,1.62
2017-04-26T10:19:15.292Z,1.45
2017-04-26T10:20:15.443Z,1.60
2017-04-26T10:21:16.216Z,1.13
2017-04-26T10:22:16.340Z,1.08
2017-04-26T10:23:16.669Z,0.92
2017-04-26T10:24:17.134Z,1.18
2017-04-26T10:25:17.112Z,1.10
2017-04-26T10:26:17.954Z,1.60
2017-04-26T10:27:19.081Z,1.33
2017-04-26T10:28:19.844Z,1.75
2017-04-26T10:29:20.349Z,0.97
2017-04-26T10:30:22.083Z,0.93
2017-04-26T10:31:20.502Z,1.35
2017-04-26T10:32:20.495Z,2.27
2017-04-26T10:33:20.608Z,1.97
2017-04-26T10:34:21.099Z,1.40
2017-04-26T10:35:21.272Z,1.85
2017-04-26T10:36:22.058Z,1.80
2017-04-26T10:37:22.863Z,2.18
2017-04-26T10:38:22.922Z,1.38
2017-04-26T10:39:23.334Z,1.58
2017-04-26T10:40:23.451Z,1.67
2017-04-26T10:41:24.240Z,1.57
2017-04-26T10:42:25.064Z,1.45
2017-04-26T10:43:25.111Z,1.02
2017-04-26T10:44:26.144Z,1.55
2017-04-26T10:45:26.179Z,1.75
2017-04-26T10:46:26.359Z,1.30
2017-04-26T10:47:27.197Z,1.33
2017-04-26T10:48:27.320Z,1.62
2017-04-26T10:49:27.799Z,1.40
2017-04-26T10:50:27.812Z,1.72
2017-04-26T10:51:28.188Z,1.60
2017-04-26T10:52:28.243Z,1.17
2017-04-26T10:53:29.042Z,1.73
2017-04-26T10:54:29.405Z,1.43
2017-04-26T10:55:29.515Z,2.20
2017-04-26T10:56:29.585Z,1.42
2017-04-26T10:57:29.615Z,1.45
2017-04-26T10:58:29.672Z,1.87
2017-04-26T10:59:30.859Z,1.57
2017-04-26T11:00:30.918Z,1.98
2017-04-26T11:01:31.168Z,1.27
2017-04-26T11:02:31.972Z,1.40
2017-04-26T11:03:31.991Z,1.43
2017-04-26T11:04:32.419Z,1.50
2017-04-26T11:05:33.264Z,1.42
2017-04-26T11:06:33.360Z,1.68
2017-04-26T11:07:34.230Z,2.13
2017-04-26T11:08:34.308Z,1.13
2017-04-26T11:09:34.658Z,1.35
2017-04-26T11:10:34.738Z,1.03
2017-04-26T11:11:35.832Z,2.33
2017-04-26T11:12:35.930Z,1.40
2017-04-26T11:13:36.034Z,1.48
2017-04-26T11:14:36.562Z,0.95
2017-04-26T11:15:37.457Z,1.28
2017-04-26T11:16:37.515Z,1.22
2017-04-26T11:17:38.353Z,1.83
2017-04-26T11:18:38.424Z,1.37
2017-04-26T11:19:38.882Z,0.92
2017-04-26T11:20:39.054Z,1.20
2017-04-26T11:21:39.178Z,1.02
2017-04-26T11:22:39.269Z,1.10
2017-04-26T11:23:39.471Z,1.18
2017-04-26T11:24:39.956Z,1.35
2017-04-26T11:25:40.003Z,1.40
2017-04-26T11:26:40.234Z,1.93
2017-04-26T11:27:40.249Z,1.10
2017-04-26T11:28:40.276Z,1.13
2017-04-26T11:29:40.594Z,1.57
2017-04-26T11:30:40.625Z,1.20
2017-04-26T11:31:40.648Z,1.07
2017-04-26T11:32:40.735Z,1.32
2017-04-26T11:33:40.797Z,1.27
2017-04-26T11:34:41.863Z,1.58
2017-04-26T11:35:41.941Z,1.43
2017-04-26T11:36:42.733Z,1.68
2017-04-26T11:37:42.736Z,1.60
2017-04-26T11:38:42.784Z,1.77
2017-04-26T11:39:43.918Z,1.48
2017-04-26T11:40:44.029Z,1.40
2017-04-26T11:41:44.950Z,1.33
2017-04-26T11:42:45.797Z,1.57
2017-04-26T11:43:45.804Z,1.10
2017-04-26T11:44:46.172Z,1.32
2017-04-26T11:45:46.225Z,1.10
2017-04-26T11:46:46.224Z,1.37
2017-04-26T11:47:46.278Z,1.35
2017-04-26T11:48:46.295Z,1.32
2017-04-26T11:49:46.629Z,1.57
2017-04-26T11:50:47.418Z,1.15
2017-04-26T11:51:48.198Z,1.35
2017-04-26T11:52:48.248Z,1.13
2017-04-26T11:53:49.036Z,1.08
2017-04-26T11:54:49.515Z,1.07
2017-04-26T11:55:49.591Z,1.80
2017-04-26T11:56:49.636Z,1.18
2017-04-26T11:57:49.801Z,1.40
2017-04-26T11:58:49.829Z,1.22
2017-04-26T11:59:50.374Z,1.68
2017-04-26T12:00:50.544Z,0.97
2017-04-26T12:01:50.719Z,1.22
2017-04-26T12:02:50.803Z,1.30
2017-04-26T12:03:51.575Z,1.60
2017-04-26T12:04:51.983Z,1.47
2017-04-26T12:05:52.040Z,1.33
2017-04-26T12:06:52.106Z,1.43
2017-04-26T12:07:52.166Z,1.32
2017-04-26T12:08:52.923Z,1.20
2017-04-26T12:09:53.216Z,1.60
2017-04-26T12:10:54.029Z,1.30
2017-04-26T12:11:54.815Z,1.72
2017-04-26T12:12:54.867Z,1.57
2017-04-26T12:13:55.688Z,1.42
2017-04-26T12:14:56.829Z,1.95
2017-04-26T12:15:57.635Z,1.53
2017-04-26T12:16:57.695Z,1.33
2017-04-26T12:17:57.956Z,1.50
2017-04-26T12:18:58.088Z,1.35
2017-04-26T12:19:59.239Z,1.70
2017-04-26T12:20:59.331Z,1.48
2017-04-26T12:21:59.499Z,1.70
2017-04-26T12:22:59.591Z,1.60
2017-04-26T12:23:59.611Z,1.72
2017-04-26T12:25:02.778Z,1.38
2017-04-26T12:26:02.843Z,2.40
2017-04-26T12:27:03.634Z,1.38
2017-04-26T12:28:03.719Z,2.02
2017-04-26T12:29:03.745Z,2.00
2017-04-26T12:30:04.151Z,1.48
2017-04-26T12:31:04.412Z,2.05
2017-04-26T12:32:05.307Z,1.38
2017-04-26T12:33:05.411Z,1.10
2017-04-26T12:34:05.513Z,1.10
2017-04-26T12:35:05.903Z,1.02
2017-04-26T12:36:05.983Z,2.23
2017-04-26T12:37:06.257Z,1.75
2017-04-26T12:38:06.290Z,1.27
2017-04-26T12:39:06.688Z,1.20
2017-04-26T12:40:07.064Z,1.08
2017-04-26T12:41:07.111Z,1.30
2017-04-26T12:42:07.910Z,1.00
2017-04-26T12:43:08.060Z,1.37
2017-04-26T12:44:08.895Z,0.78
2017-04-26T12:45:10.045Z,1.30
2017-04-26T12:46:10.123Z,2.42
2017-04-26T12:47:10.932Z,0.98
2017-04-26T12:48:11.048Z,1.10
2017-04-26T12:49:11.164Z,1.25
2017-04-26T12:50:11.404Z,1.58
2017-04-26T12:51:11.434Z,1.50
2017-04-26T12:52:11.627Z,1.43
2017-04-26T12:53:11.805Z,1.48
2017-04-26T12:54:11.903Z,1.68
2017-04-26T12:55:12.350Z,1.83
2017-04-26T12:56:14.148Z,1.72
2017-04-26T12:57:14.236Z,1.78
2017-04-26T12:58:14.278Z,1.53
2017-04-26T12:59:14.799Z,2.67
2017-04-26T13:00:15.365Z,2.68
2017-04-26T13:01:15.418Z,1.70
2017-04-26T13:02:15.568Z,1.22
2017-04-26T13:03:16.448Z,1.42
2017-04-26T13:04:17.308Z,1.62
2017-04-26T13:05:18.453Z,1.27
2017-04-26T13:06:19.222Z,1.23
2017-04-26T13:07:19.302Z,1.15
2017-04-26T13:08:19.411Z,1.38
2017-04-26T13:09:19.597Z,1.35
2017-04-26T13:10:20.130Z,2.08
2017-04-26T13:11:20.153Z,0.93
2017-04-26T13:12:20.215Z,1.30
2017-04-26T13:13:20.243Z,1.00
2017-04-26T13:14:20.303Z,1.05
2017-04-26T13:15:20.695Z,1.50
2017-04-26T13:16:20.739Z,1.30
2017-04-26T13:17:21.226Z,0.98
2017-04-26T13:18:21.333Z,1.32
2017-04-26T13:19:21.364Z,1.00
2017-04-26T13:20:21.864Z,1.13
2017-04-26T13:21:21.984Z,0.90